Time;durP1;ratioP1;P1;durP2;ratioP2;P2;SDS_P1;SDS_P2;PMS_P1;PMS_P2;Temp;Humidity;BMP_temperature;BMP_pressure;BME280_temperature;BME280_humidity;BME280_pressure;Samples;Min_cycle;Max_cycle;Signal;HPM_P1;HPM_P2
2021/03/12 00:00:24;;;;;;;49.40;38.67;;;9.60;83.40;;;;;;5033952;28;20108;-73
2021/03/12 00:02:50;;;;;;;57.87;40.30;;;9.60;83.80;;;;;;5034138;28;20055;-73
2021/03/12 00:05:16;;;;;;;53.97;40.23;;;9.60;84.00;;;;;;5034003;28;20053;-73
2021/03/12 00:07:42;;;;;;;52.27;38.10;;;9.50;84.30;;;;;;5033500;28;20026;-73
2021/03/12 00:10:13;;;;;;;55.13;41.03;;;9.50;84.60;;;;;;5033651;28;20048;-73
2021/03/12 00:12:39;;;;;;;55.43;40.27;;;9.50;84.50;;;;;;5033442;28;20403;-73
2021/03/12 00:15:11;;;;;;;54.10;39.73;;;9.60;84.30;;;;;;5033654;28;20079;-73
2021/03/12 00:17:37;;;;;;;49.15;37.10;;;9.60;84.30;;;;;;5033396;28;20036;-73
2021/03/12 00:20:17;;;;;;;52.63;39.27;;;9.60;84.20;;;;;;5033322;28;20026;-73
2021/03/12 00:22:44;;;;;;;55.03;39.50;;;9.60;83.70;;;;;;5033037;28;20116;-73
2021/03/12 00:25:12;;;;;;;54.73;39.43;;;9.60;83.50;;;;;;5032951;28;20026;-73
2021/03/12 00:27:38;;;;;;;49.53;37.23;;;9.60;83.70;;;;;;5032240;28;20443;-72
2021/03/12 00:30:06;;;;;;;55.63;39.80;;;9.60;83.90;;;;;;5013999;28;20087;-73
2021/03/12 00:32:31;;;;;;;55.00;38.90;;;9.60;83.90;;;;;;5013478;28;20054;-73
2021/03/12 00:34:57;;;;;;;56.13;38.90;;;9.60;84.00;;;;;;5013665;28;20061;-73
2021/03/12 00:37:23;;;;;;;59.07;40.07;;;9.60;84.10;;;;;;5013248;28;20121;-73
2021/03/12 00:39:49;;;;;;;54.83;40.07;;;9.50;84.30;;;;;;5013395;28;20091;-73
2021/03/12 00:42:14;;;;;;;57.57;40.13;;;9.50;84.50;;;;;;5013053;28;20478;-74
2021/03/12 00:44:40;;;;;;;55.37;42.37;;;9.50;85.00;;;;;;5013229;28;20030;-74
2021/03/12 00:47:06;;;;;;;56.33;41.63;;;9.40;84.90;;;;;;5013297;28;20128;-73
2021/03/12 00:49:32;;;;;;;58.20;42.93;;;9.40;85.10;;;;;;5013417;28;20113;-74
2021/03/12 00:51:57;;;;;;;56.03;40.73;;;9.40;85.10;;;;;;5013556;28;20084;-73
2021/03/12 00:54:23;;;;;;;58.60;41.73;;;9.30;85.20;;;;;;5013591;28;20022;-73
2021/03/12 00:56:49;;;;;;;63.20;43.97;;;9.30;85.40;;;;;;5013357;28;20016;-74
2021/03/12 00:59:15;;;;;;;58.67;42.50;;;9.30;85.80;;;;;;5013329;28;20069;-74
2021/03/12 01:01:40;;;;;;;54.07;40.03;;;9.30;85.90;;;;;;5013095;28;20026;-74
2021/03/12 01:04:06;;;;;;;57.57;40.47;;;9.30;85.70;;;;;;5013149;28;20025;-74
2021/03/12 01:06:32;;;;;;;56.10;40.17;;;9.30;85.60;;;;;;5013163;28;20068;-74
2021/03/12 01:08:57;;;;;;;57.20;38.87;;;9.30;85.40;;;;;;5013196;28;20046;-74
2021/03/12 01:11:23;;;;;;;50.27;37.37;;;9.30;84.90;;;;;;5013141;28;20479;-74
2021/03/12 01:13:48;;;;;;;52.97;37.47;;;9.40;85.00;;;;;;5013338;28;20026;-74
2021/03/12 01:16:14;;;;;;;53.47;37.87;;;9.40;84.80;;;;;;5012988;28;20030;-74
2021/03/12 01:18:40;;;;;;;51.37;38.10;;;9.40;85.00;;;;;;5012852;28;20041;-74
2021/03/12 01:21:06;;;;;;;50.47;37.20;;;9.40;84.60;;;;;;5013187;28;20029;-74
2021/03/12 01:23:31;;;;;;;50.60;37.93;;;9.50;84.30;;;;;;5013212;28;20049;-74
2021/03/12 01:25:58;;;;;;;53.60;37.60;;;9.50;84.40;;;;;;5013148;28;20538;-74
2021/03/12 01:28:24;;;;;;;50.07;37.13;;;9.40;84.70;;;;;;5013151;28;20034;-74
2021/03/12 01:30:50;;;;;;;49.53;37.67;;;9.40;84.40;;;;;;5012928;28;20071;-74
2021/03/12 01:33:17;;;;;;;49.57;35.27;;;9.50;84.20;;;;;;5013167;28;20034;-74
2021/03/12 01:35:42;;;;;;;50.20;37.40;;;9.50;84.20;;;;;;5013359;28;20022;-74
2021/03/12 01:38:09;;;;;;;53.53;39.97;;;9.50;84.10;;;;;;5016658;28;20379;-74
2021/03/12 01:40:39;;;;;;;50.67;38.03;;;9.50;84.10;;;;;;5017057;28;20025;-74
2021/03/12 01:43:05;;;;;;;53.67;39.57;;;9.50;83.90;;;;;;5017010;28;20025;-74
2021/03/12 01:45:39;;;;;;;49.83;37.57;;;9.40;84.00;;;;;;5016524;28;20121;-74
2021/03/12 01:48:11;;;;;;;54.73;39.70;;;9.50;84.20;;;;;;5016930;28;20096;-74
2021/03/12 01:50:38;;;;;;;52.67;39.43;;;9.50;83.90;;;;;;5016655;28;20026;-74
2021/03/12 01:53:16;;;;;;;53.40;39.60;;;9.50;83.50;;;;;;5016828;28;20034;-74
2021/03/12 01:55:42;;;;;;;54.77;39.23;;;9.50;83.40;;;;;;5016720;28;20451;-74
2021/03/12 01:58:08;;;;;;;54.60;39.77;;;9.50;83.70;;;;;;5015044;28;20072;-75
2021/03/12 02:00:34;;;;;;;57.60;40.97;;;9.50;84.20;;;;;;5014011;28;20025;-74
2021/03/12 02:03:00;;;;;;;56.47;39.63;;;9.40;84.20;;;;;;5014323;28;20062;-74
2021/03/12 02:05:27;;;;;;;53.40;39.33;;;9.40;84.60;;;;;;5015726;28;20493;-74
2021/03/12 02:07:53;;;;;;;55.80;40.50;;;9.40;84.90;;;;;;5016256;28;20026;-75
2021/03/12 02:10:22;;;;;;;52.37;40.50;;;9.40;84.90;;;;;;5016315;28;20360;-75
2021/03/12 02:12:58;;;;;;;52.37;40.80;;;9.40;85.00;;;;;;5016087;28;20038;-75
2021/03/12 02:15:31;;;;;;;52.80;40.47;;;9.30;85.20;;;;;;5016539;28;20022;-75
2021/03/12 02:17:56;;;;;;;;;;;9.30;85.10;;;;;;5016467;28;20024;-74
2021/03/12 02:20:37;;;;;;;56.00;40.13;;;9.30;85.10;;;;;;5016062;28;19949;-74
2021/03/12 02:23:11;;;;;;;47.80;39.20;;;9.30;85.10;;;;;;5015904;28;20026;-74
2021/03/12 02:25:42;;;;;;;47.77;37.30;;;9.30;85.20;;;;;;5016156;28;20025;-74
2021/03/12 02:28:08;;;;;;;42.97;36.37;;;9.40;85.10;;;;;;5015673;28;20101;-74
2021/03/12 02:30:35;;;;;;;46.70;37.50;;;9.40;85.00;;;;;;5015678;28;20017;-73
2021/03/12 02:33:02;;;;;;;44.73;37.13;;;9.40;84.80;;;;;;5015788;28;20037;-74
2021/03/12 02:35:28;;;;;;;40.90;33.60;;;9.40;84.80;;;;;;5015741;28;20033;-73
2021/03/12 02:37:55;;;;;;;44.80;37.27;;;9.40;85.00;;;;;;5015457;28;20475;-74
2021/03/12 02:40:21;;;;;;;45.70;36.83;;;9.40;84.70;;;;;;5015719;28;20022;-74
2021/03/12 02:42:48;;;;;;;44.07;35.17;;;9.40;84.80;;;;;;5015404;28;20060;-74
2021/03/12 02:45:18;;;;;;;45.27;36.27;;;9.30;84.80;;;;;;5015706;28;20049;-74
2021/03/12 02:47:44;;;;;;;44.97;37.50;;;9.30;85.20;;;;;;5014596;28;20038;-74
2021/03/12 02:50:12;;;;;;;48.60;36.20;;;9.30;85.40;;;;;;5014328;28;20132;-74
2021/03/12 02:52:38;;;;;;;43.23;36.00;;;9.30;85.50;;;;;;5015578;28;20536;-74
2021/03/12 02:55:06;;;;;;;41.77;32.33;;;9.30;85.70;;;;;;5015697;28;20029;-73
2021/03/12 02:57:32;;;;;;;36.63;30.33;;;9.30;85.70;;;;;;5015398;28;20030;-73
2021/03/12 02:59:58;;;;;;;37.07;30.43;;;9.30;85.80;;;;;;5015243;28;20133;-74
2021/03/12 03:02:28;;;;;;;37.73;30.10;;;9.30;85.40;;;;;;5015254;28;20101;-73
2021/03/12 03:04:56;;;;;;;37.70;30.20;;;9.30;85.50;;;;;;5015454;28;20022;-74
2021/03/12 03:07:23;;;;;;;36.77;28.83;;;9.30;85.50;;;;;;5015615;28;20475;-74
2021/03/12 03:09:51;;;;;;;38.87;30.60;;;9.30;85.40;;;;;;5015390;28;20411;-74
2021/03/12 03:12:19;;;;;;;36.63;29.37;;;9.30;85.30;;;;;;5015212;28;20026;-74
2021/03/12 03:14:48;;;;;;;35.60;28.83;;;9.30;85.10;;;;;;5015162;28;20068;-73
2021/03/12 03:17:15;;;;;;;38.17;30.53;;;9.30;85.00;;;;;;5014870;28;20068;-74
2021/03/12 03:19:45;;;;;;;35.90;30.17;;;9.30;85.10;;;;;;5014991;28;20026;-73
2021/03/12 03:22:11;;;;;;;35.30;30.13;;;9.30;85.80;;;;;;5015151;28;20022;-74
2021/03/12 03:24:38;;;;;;;32.93;27.87;;;9.30;85.40;;;;;;5015097;28;20033;-74
2021/03/12 03:27:06;;;;;;;33.87;28.23;;;9.30;85.50;;;;;;5015004;28;20022;-74
2021/03/12 03:29:32;;;;;;;31.70;27.50;;;9.30;85.60;;;;;;5014879;28;20018;-74
2021/03/12 03:32:00;;;;;;;32.33;27.23;;;9.30;85.70;;;;;;5014916;28;20048;-74
2021/03/12 03:34:25;;;;;;;35.30;27.73;;;9.30;85.60;;;;;;5014777;28;20030;-74
2021/03/12 03:36:51;;;;;;;35.93;29.90;;;9.30;85.80;;;;;;5014713;28;20083;-74
2021/03/12 03:39:17;;;;;;;33.50;28.93;;;9.30;85.90;;;;;;5014371;28;20030;-74
2021/03/12 03:41:46;;;;;;;34.50;29.20;;;9.30;85.90;;;;;;5014760;28;20022;-74
2021/03/12 03:44:14;;;;;;;33.53;28.93;;;9.30;85.90;;;;;;5014731;28;20080;-74
2021/03/12 03:46:43;;;;;;;35.97;29.13;;;9.30;85.90;;;;;;5014282;28;20394;-74
2021/03/12 03:49:09;;;;;;;33.30;27.43;;;9.30;86.10;;;;;;5014628;28;20022;-74
2021/03/12 03:51:39;;;;;;;33.60;27.60;;;9.30;86.00;;;;;;5014489;28;20539;-74
2021/03/12 03:54:07;;;;;;;32.57;26.67;;;9.30;86.20;;;;;;5014405;28;20479;-74
2021/03/12 03:56:36;;;;;;;29.93;25.53;;;9.40;86.10;;;;;;5014480;28;20052;-74
2021/03/12 03:59:03;;;;;;;31.57;27.27;;;9.30;86.10;;;;;;5014154;28;20045;-74
2021/03/12 04:01:29;;;;;;;33.20;27.33;;;9.40;86.10;;;;;;5014411;28;20030;-74
2021/03/12 04:03:55;;;;;;;30.10;26.57;;;9.40;86.00;;;;;;5014256;28;20038;-74
2021/03/12 04:06:22;;;;;;;31.23;27.33;;;9.40;86.00;;;;;;5014053;28;20467;-74
2021/03/12 04:08:48;;;;;;;30.07;26.53;;;9.40;86.10;;;;;;5013979;28;20437;-74
2021/03/12 04:11:14;;;;;;;29.37;26.17;;;9.40;86.20;;;;;;5014032;28;20033;-74
2021/03/12 04:13:41;;;;;;;31.30;27.07;;;9.40;86.30;;;;;;5014206;28;20352;-74
2021/03/12 04:16:08;;;;;;;32.87;26.87;;;9.40;86.30;;;;;;5013963;28;20100;-74
2021/03/12 04:18:34;;;;;;;33.17;28.17;;;9.40;86.40;;;;;;5013833;28;20065;-74
2021/03/12 04:21:00;;;;;;;31.67;28.27;;;9.40;86.40;;;;;;5014096;28;20026;-74
2021/03/12 04:23:27;;;;;;;32.60;28.43;;;9.40;86.40;;;;;;5012649;28;20073;-74
2021/03/12 04:25:53;;;;;;;33.47;29.40;;;9.40;86.30;;;;;;5013858;28;20026;-74
2021/03/12 04:28:19;;;;;;;33.20;29.23;;;9.40;86.50;;;;;;5013889;28;20087;-74
2021/03/12 04:30:45;;;;;;;32.30;28.20;;;9.40;86.30;;;;;;5012649;28;20435;-74
2021/03/12 04:33:11;;;;;;;27.80;24.30;;;9.40;86.40;;;;;;5013896;28;20055;-75
2021/03/12 04:35:37;;;;;;;31.70;26.30;;;9.40;86.40;;;;;;5013871;28;20052;-75
2021/03/12 04:38:04;;;;;;;28.37;24.97;;;9.40;86.80;;;;;;5013536;28;20041;-75
2021/03/12 04:40:31;;;;;;;27.60;23.83;;;9.40;86.30;;;;;;5013695;28;20105;-75
2021/03/12 04:42:57;;;;;;;29.17;25.23;;;9.40;86.20;;;;;;5013231;28;20034;-75
2021/03/12 04:45:23;;;;;;;29.83;24.50;;;9.40;86.40;;;;;;5013462;28;20038;-75
2021/03/12 04:47:50;;;;;;;28.70;25.50;;;9.40;86.40;;;;;;5013479;28;20084;-75
2021/03/12 04:50:16;;;;;;;29.57;23.90;;;9.40;86.50;;;;;;5013535;28;20446;-75
2021/03/12 04:52:42;;;;;;;27.97;24.03;;;9.40;86.60;;;;;;5013422;28;20505;-75
2021/03/12 04:55:08;;;;;;;27.30;23.47;;;9.40;86.70;;;;;;5013335;28;20062;-75
2021/03/12 04:57:37;;;;;;;23.90;21.33;;;9.40;86.90;;;;;;5013330;28;20065;-75
2021/03/12 05:00:06;;;;;;;25.90;22.17;;;9.40;86.70;;;;;;5013443;28;20113;-74
2021/03/12 05:02:34;;;;;;;26.87;22.90;;;9.50;86.80;;;;;;5013269;28;20033;-74
2021/03/12 05:05:00;;;;;;;24.83;22.23;;;9.50;86.70;;;;;;5013164;28;20360;-75
2021/03/12 05:07:26;;;;;;;25.97;21.87;;;9.40;86.80;;;;;;5013053;28;20379;-75
2021/03/12 05:09:51;;;;;;;27.83;23.20;;;9.50;86.80;;;;;;5012864;28;20061;-75
2021/03/12 05:12:17;;;;;;;28.67;23.27;;;9.50;86.80;;;;;;5012614;28;20427;-75
2021/03/12 05:14:43;;;;;;;27.03;22.33;;;9.40;86.50;;;;;;5013179;28;20026;-75
2021/03/12 05:17:08;;;;;;;25.43;22.30;;;9.50;87.20;;;;;;5012923;28;20389;-74
2021/03/12 05:19:34;;;;;;;25.77;22.17;;;9.40;86.50;;;;;;5013090;28;20390;-75
2021/03/12 05:22:00;;;;;;;26.10;23.30;;;9.50;86.40;;;;;;5013144;28;20475;-75
2021/03/12 05:24:26;;;;;;;31.47;24.20;;;9.50;86.70;;;;;;5013164;28;20022;-74
2021/03/12 05:26:52;;;;;;;28.67;24.07;;;9.50;86.60;;;;;;5011973;28;20049;-75
2021/03/12 05:29:18;;;;;;;27.57;23.00;;;9.40;86.50;;;;;;5013097;28;20086;-75
2021/03/12 05:31:44;;;;;;;27.10;23.13;;;9.40;86.50;;;;;;5012779;28;20546;-75
2021/03/12 05:34:10;;;;;;;25.17;22.47;;;9.40;86.50;;;;;;5012912;28;20041;-75
2021/03/12 05:36:38;;;;;;;25.73;22.90;;;9.40;86.70;;;;;;5012973;28;20109;-75
2021/03/12 05:39:05;;;;;;;26.70;23.37;;;9.40;86.80;;;;;;5012835;28;20030;-76
2021/03/12 05:41:32;;;;;;;29.50;25.10;;;9.40;86.90;;;;;;5012894;28;20026;-76
2021/03/12 05:44:02;;;;;;;32.07;23.67;;;9.40;87.10;;;;;;5013072;28;20113;-76
2021/03/12 05:46:28;;;;;;;28.40;24.33;;;9.40;87.10;;;;;;5012905;28;20082;-76
2021/03/12 05:48:54;;;;;;;27.83;23.00;;;9.40;87.30;;;;;;5013033;28;20061;-75
2021/03/12 05:51:21;;;;;;;26.37;21.30;;;9.40;87.30;;;;;;5012754;28;20514;-75
2021/03/12 05:53:47;;;;;;;23.83;20.80;;;9.50;87.30;;;;;;5012996;28;20025;-76
2021/03/12 05:56:13;;;;;;;27.90;22.80;;;9.40;87.20;;;;;;5012983;28;20532;-76
2021/03/12 05:58:39;;;;;;;27.10;20.67;;;9.50;87.20;;;;;;5011529;28;20129;-76
2021/03/12 06:01:05;;;;;;;24.60;21.63;;;9.50;87.20;;;;;;5012786;28;20065;-75
2021/03/12 06:03:31;;;;;;;25.53;19.90;;;9.50;87.10;;;;;;5012753;28;20072;-75
2021/03/12 06:05:56;;;;;;;25.80;19.13;;;9.50;87.30;;;;;;5012982;28;20026;-74
2021/03/12 06:08:22;;;;;;;27.70;21.53;;;9.50;87.20;;;;;;5012867;28;20034;-74
2021/03/12 06:10:49;;;;;;;20.43;18.20;;;9.50;87.40;;;;;;5012737;28;20026;-73
2021/03/12 06:13:15;;;;;;;23.57;17.73;;;9.50;87.40;;;;;;5012637;28;20034;-73
2021/03/12 06:15:45;;;;;;;22.63;20.23;;;9.50;87.40;;;;;;5012486;28;20034;-74
2021/03/12 06:18:21;;;;;;;23.90;21.30;;;9.50;87.50;;;;;;5012330;28;20429;-73
2021/03/12 06:20:48;;;;;;;26.07;23.27;;;9.50;87.60;;;;;;5012545;28;20026;-73
2021/03/12 06:23:31;;;;;;;29.33;25.40;;;9.50;87.40;;;;;;5013934;28;20022;-73
2021/03/12 06:25:57;;;;;;;31.03;26.13;;;9.60;87.30;;;;;;5015713;28;20104;-73
2021/03/12 06:28:23;;;;;;;28.73;25.37;;;9.60;87.10;;;;;;5015943;28;20109;-73
2021/03/12 06:30:48;;;;;;;28.13;24.27;;;9.60;87.30;;;;;;5015875;28;20026;-73
2021/03/12 06:33:34;;;;;;;32.20;25.67;;;9.60;87.20;;;;;;5015979;28;20034;-73
2021/03/12 06:36:02;;;;;;;30.07;26.13;;;9.60;87.20;;;;;;5015800;28;20026;-73
2021/03/12 06:38:28;;;;;;;29.83;25.33;;;9.60;87.10;;;;;;5015777;28;20056;-73
2021/03/12 06:40:54;;;;;;;34.07;26.70;;;9.60;87.10;;;;;;5015907;28;20480;-73
2021/03/12 06:43:21;;;;;;;31.37;26.17;;;9.60;86.90;;;;;;5014608;28;20112;-73
2021/03/12 06:45:50;;;;;;;29.37;25.33;;;9.60;86.90;;;;;;5016106;28;20042;-73
2021/03/12 06:48:20;;;;;;;31.03;25.40;;;9.60;86.90;;;;;;5015748;28;20386;-73
2021/03/12 06:50:54;;;;;;;30.00;24.57;;;9.70;87.10;;;;;;5015728;28;20517;-74
2021/03/12 06:53:26;;;;;;;30.63;26.17;;;9.70;87.00;;;;;;5026726;28;20486;-75
2021/03/12 06:55:53;;;;;;;29.80;24.75;;;9.70;87.00;;;;;;5034884;28;20036;-75
2021/03/12 06:58:20;;;;;;;29.37;24.37;;;9.70;87.00;;;;;;5034404;28;20040;-76
2021/03/12 07:00:46;;;;;;;27.73;23.93;;;9.70;87.00;;;;;;5033717;28;20109;-75
2021/03/12 07:03:24;;;;;;;29.67;24.37;;;9.70;86.90;;;;;;5035659;28;20025;-76
2021/03/12 07:06:19;;;;;;;30.93;25.57;;;9.70;87.00;;;;;;5034983;28;20021;-75
2021/03/12 07:08:47;;;;;;;27.03;24.13;;;9.70;87.00;;;;;;5015363;28;20025;-76
2021/03/12 07:11:30;;;;;;;31.40;25.20;;;9.70;86.90;;;;;;5013993;28;20022;-76
2021/03/12 07:13:57;;;;;;;31.97;25.23;;;9.70;86.80;;;;;;5013576;28;20033;-75
2021/03/12 07:16:25;;;;;;;27.43;23.93;;;9.70;86.70;;;;;;5014719;28;20102;-75
2021/03/12 07:18:52;;;;;;;30.87;25.40;;;9.80;86.80;;;;;;5014230;28;20033;-76
2021/03/12 07:21:23;;;;;;;30.90;25.17;;;9.80;86.70;;;;;;5014494;28;20045;-75
2021/03/12 07:24:10;;;;;;;29.63;24.13;;;9.80;86.70;;;;;;5012545;28;20111;-75
2021/03/12 07:26:44;;;;;;;31.30;24.17;;;9.80;86.50;;;;;;5014442;28;20020;-75
2021/03/12 07:29:11;;;;;;;27.47;24.17;;;9.80;86.70;;;;;;5014166;28;20021;-69
2021/03/12 07:31:40;;;;;;;31.93;23.60;;;9.80;86.90;;;;;;5014881;28;20470;-72
2021/03/12 07:34:31;;;;;;;28.93;23.63;;;9.80;87.00;;;;;;5014325;28;20053;-72
2021/03/12 07:36:59;;;;;;;34.63;23.43;;;9.80;87.10;;;;;;5015012;28;20068;-74
2021/03/12 07:39:41;;;;;;;30.27;23.03;;;9.80;87.10;;;;;;5014583;28;20070;-74
2021/03/12 07:42:15;;;;;;;25.40;21.10;;;9.80;87.00;;;;;;5014689;28;20026;-75
2021/03/12 07:44:44;;;;;;;23.80;21.00;;;9.90;86.70;;;;;;5014597;28;20034;-75
2021/03/12 07:47:10;;;;;;;26.43;21.70;;;9.90;86.30;;;;;;5014226;28;20073;-74
2021/03/12 07:49:37;;;;;;;25.70;21.83;;;9.90;86.10;;;;;;5014199;28;20101;-74
2021/03/12 07:52:04;;;;;;;29.97;22.20;;;9.90;85.80;;;;;;5014079;28;20018;-73
2021/03/12 07:54:43;;;;;;;24.50;21.20;;;9.90;86.10;;;;;;5012777;28;20112;-74
2021/03/12 07:57:10;;;;;;;24.87;19.87;;;9.90;85.70;;;;;;5013594;28;20042;-74
2021/03/12 07:59:48;;;;;;;27.88;20.52;;;9.90;86.20;;;;;;5013497;28;20038;-73
2021/03/12 08:02:17;;;;;;;26.07;20.43;;;9.90;86.00;;;;;;5014608;28;20030;-75
2021/03/12 08:04:45;;;;;;;30.90;20.20;;;9.90;85.60;;;;;;5014303;28;20049;-74
2021/03/12 08:07:17;;;;;;;25.53;19.13;;;9.90;85.30;;;;;;5014113;28;20029;-73
2021/03/12 08:09:46;;;;;;;26.65;21.05;;;10.00;85.10;;;;;;5014366;28;20025;-76
2021/03/12 08:12:37;;;;;;;27.40;19.50;;;10.00;84.70;;;;;;5014235;28;20065;-73
2021/03/12 08:15:15;;;;;;;25.50;19.02;;;10.00;85.00;;;;;;5014077;28;20430;-74
2021/03/12 08:17:45;;;;;;;29.20;19.13;;;10.00;84.70;;;;;;5014057;28;20030;-75
2021/03/12 08:20:26;;;;;;;24.88;19.20;;;10.00;84.50;;;;;;5015245;28;20165;-73
2021/03/12 08:22:58;;;;;;;25.67;17.58;;;10.00;84.40;;;;;;5033818;28;20053;-74
2021/03/12 08:25:35;;;;;;;24.92;19.17;;;10.00;84.10;;;;;;5033745;28;20079;-73
2021/03/12 08:28:07;;;;;;;24.00;18.10;;;10.10;84.50;;;;;;5033625;28;20068;-74
2021/03/12 08:30:35;;;;;;;22.23;18.52;;;10.10;83.80;;;;;;5033614;28;20021;-76
2021/03/12 08:33:02;;;;;;;32.50;20.40;;;10.20;83.60;;;;;;5033768;28;20429;-74
2021/03/12 08:35:34;;;;;;;26.13;20.60;;;10.20;83.40;;;;;;5033562;28;20104;-76
2021/03/12 08:38:00;;;;;;;25.40;19.77;;;10.20;83.30;;;;;;5033410;28;20437;-74
2021/03/12 08:40:27;;;;;;;22.50;17.42;;;10.20;83.30;;;;;;5032209;28;20026;-76
2021/03/12 08:42:53;;;;;;;26.20;19.90;;;10.20;83.10;;;;;;5032285;28;20030;-76
2021/03/12 08:45:39;;;;;;;24.58;19.83;;;10.20;82.90;;;;;;5031788;28;20116;-76
2021/03/12 08:48:11;;;;;;;25.95;18.90;;;10.20;82.70;;;;;;4984873;28;20121;-76
2021/03/12 08:50:59;;;;;;;22.50;18.85;;;10.30;82.40;;;;;;4989819;28;20054;-76
2021/03/12 08:53:30;;;;;;;29.80;20.05;;;10.30;82.60;;;;;;4993491;28;20411;-73
2021/03/12 08:55:57;;;;;;;29.57;20.00;;;10.30;82.80;;;;;;4992906;28;20026;-77
2021/03/12 08:58:34;;;;;;;27.60;18.45;;;10.30;82.40;;;;;;4993369;28;20030;-74
2021/03/12 09:01:11;;;;;;;22.67;17.97;;;10.30;82.80;;;;;;4993264;28;20015;-74
2021/03/12 09:03:37;;;;;;;26.73;17.67;;;10.40;82.30;;;;;;4993535;28;20490;-76
2021/03/12 09:06:06;;;;;;;20.23;17.70;;;10.40;82.50;;;;;;4992004;28;20052;-74
2021/03/12 09:08:34;;;;;;;23.83;17.87;;;10.40;82.60;;;;;;4990763;28;20402;-79
2021/03/12 09:11:01;;;;;;;20.20;16.63;;;10.40;83.20;;;;;;4991141;28;20044;-75
2021/03/12 09:13:29;;;;;;;24.23;16.40;;;10.50;83.50;;;;;;4993364;28;20062;-76
2021/03/12 09:15:55;;;;;;;24.10;17.35;;;10.50;83.20;;;;;;4993722;28;20034;-75
2021/03/12 09:18:22;;;;;;;19.37;14.87;;;10.50;82.70;;;;;;4993342;28;20106;-75
2021/03/12 09:20:53;;;;;;;20.10;15.98;;;10.50;82.60;;;;;;4993215;28;20030;-75
2021/03/12 09:23:20;;;;;;;23.63;14.93;;;10.50;83.40;;;;;;4993680;28;20106;-72
2021/03/12 09:25:45;;;;;;;23.35;15.35;;;10.50;83.00;;;;;;4993565;28;20045;-72
2021/03/12 09:28:13;;;;;;;20.58;15.55;;;10.60;83.20;;;;;;4993149;28;20495;-72
2021/03/12 09:30:46;;;;;;;21.75;14.95;;;10.60;83.30;;;;;;4993504;28;20037;-73
2021/03/12 09:33:33;;;;;;;30.63;15.23;;;10.60;83.10;;;;;;4993491;28;20049;-72
2021/03/12 09:36:01;;;;;;;21.83;14.98;;;10.60;83.10;;;;;;4993351;28;20027;-73
2021/03/12 09:38:30;;;;;;;21.55;14.00;;;10.60;82.80;;;;;;4993264;28;20042;-73
2021/03/12 09:40:56;;;;;;;21.95;13.90;;;10.60;83.20;;;;;;4993210;28;20101;-74
2021/03/12 09:43:22;;;;;;;22.48;15.02;;;10.60;83.10;;;;;;4993008;28;20583;-74
2021/03/12 09:45:49;;;;;;;25.83;15.17;;;10.60;83.30;;;;;;4993319;28;20064;-73
2021/03/12 09:48:15;;;;;;;20.88;14.40;;;10.60;83.40;;;;;;4993393;28;20045;-74
2021/03/12 09:50:41;;;;;;;19.50;15.02;;;10.70;83.70;;;;;;4993142;28;20030;-74
2021/03/12 09:53:08;;;;;;;27.77;18.02;;;10.70;83.60;;;;;;4993114;28;20058;-74
2021/03/12 09:55:35;;;;;;;28.85;16.77;;;10.70;83.60;;;;;;4989454;28;20034;-73
2021/03/12 09:58:11;;;;;;;29.00;17.70;;;10.70;83.30;;;;;;4992745;28;20030;-74
2021/03/12 10:00:36;;;;;;;24.00;17.80;;;10.70;83.50;;;;;;4996248;28;20145;-74
2021/03/12 10:03:03;;;;;;;25.23;17.98;;;10.70;83.30;;;;;;4996878;28;20054;-75
2021/03/12 10:05:29;;;;;;;22.00;17.40;;;10.70;83.20;;;;;;4996844;28;20027;-74
2021/03/12 10:08:02;;;;;;;23.67;18.55;;;10.70;82.80;;;;;;4996860;28;20034;-74
2021/03/12 10:10:30;;;;;;;30.08;18.50;;;10.80;82.90;;;;;;4996754;28;20069;-75
2021/03/12 10:12:57;;;;;;;26.27;18.05;;;10.80;82.90;;;;;;4996332;28;20434;-74
2021/03/12 10:15:24;;;;;;;26.60;17.73;;;10.80;83.00;;;;;;4995431;28;20019;-74
2021/03/12 10:17:51;;;;;;;28.73;18.95;;;10.90;83.10;;;;;;4995056;28;20443;-74
2021/03/12 10:20:27;;;;;;;25.00;19.00;;;10.80;83.10;;;;;;4996250;28;20026;-74
2021/03/12 10:22:59;;;;;;;21.92;19.10;;;10.90;83.00;;;;;;4996412;28;20471;-74
2021/03/12 10:25:31;;;;;;;24.50;19.58;;;10.90;83.50;;;;;;4996750;28;20030;-74
2021/03/12 10:27:59;;;;;;;26.15;17.92;;;10.90;83.60;;;;;;4996565;28;20034;-74
2021/03/12 10:30:37;;;;;;;21.08;17.73;;;10.90;83.60;;;;;;4996558;28;20109;-73
2021/03/12 10:33:09;;;;;;;23.83;17.27;;;10.90;83.60;;;;;;4995869;28;20033;-74
2021/03/12 10:35:46;;;;;;;26.88;18.25;;;10.90;83.20;;;;;;4996146;28;20471;-74
2021/03/12 10:38:25;;;;;;;21.95;17.10;;;10.90;83.20;;;;;;4996148;28;20387;-74
2021/03/12 10:40:56;;;;;;;25.88;17.38;;;10.80;83.20;;;;;;4996060;28;20031;-74
2021/03/12 10:43:27;;;;;;;20.63;16.48;;;10.90;83.70;;;;;;4996381;28;20030;-75
2021/03/12 10:45:55;;;;;;;27.40;17.98;;;10.90;83.90;;;;;;4995910;28;20117;-74
2021/03/12 10:48:26;;;;;;;24.67;17.73;;;10.90;83.10;;;;;;4996107;28;20026;-74
2021/03/12 10:50:57;;;;;;;23.55;17.52;;;10.90;83.00;;;;;;4995874;28;20023;-73
2021/03/12 10:53:23;;;;;;;32.10;19.33;;;10.90;83.20;;;;;;4995264;28;20034;-70
2021/03/12 10:55:51;;;;;;;29.20;18.17;;;11.00;83.10;;;;;;4994702;28;20026;-70
2021/03/12 10:58:30;;;;;;;23.88;17.20;;;11.00;83.50;;;;;;4995021;28;20027;-70
2021/03/12 11:01:25;;;;;;;27.80;18.20;;;11.00;83.60;;;;;;4995639;28;20058;-70
2021/03/12 11:03:55;;;;;;;24.65;17.90;;;11.10;83.70;;;;;;4994908;28;20602;-70
2021/03/12 11:06:27;;;;;;;32.50;17.70;;;11.20;83.60;;;;;;4995180;28;20019;-70
2021/03/12 11:08:53;;;;;;;23.20;16.83;;;11.20;84.30;;;;;;4993699;28;20471;-70
2021/03/12 11:11:21;;;;;;;22.87;16.63;;;11.20;84.00;;;;;;4995036;28;20031;-70
2021/03/12 11:13:47;;;;;;;24.30;16.25;;;11.20;83.50;;;;;;4994964;28;20625;-70
2021/03/12 11:16:13;;;;;;;23.75;16.23;;;11.20;83.20;;;;;;4994351;28;20026;-70
2021/03/12 11:18:39;;;;;;;24.60;16.85;;;11.30;83.40;;;;;;4992795;28;20041;-70
2021/03/12 11:21:06;;;;;;;28.38;18.80;;;11.30;83.30;;;;;;4994437;28;20018;-70
2021/03/12 11:23:33;;;;;;;26.02;17.17;;;11.30;83.40;;;;;;4995151;28;20030;-70
2021/03/12 11:25:59;;;;;;;28.15;17.70;;;11.30;83.20;;;;;;4995404;28;20026;-70
2021/03/12 11:28:26;;;;;;;25.65;15.93;;;11.30;83.10;;;;;;4995285;28;20475;-70
2021/03/12 11:30:56;;;;;;;21.50;15.93;;;11.30;83.10;;;;;;4994753;28;20030;-70
2021/03/12 11:33:23;;;;;;;20.90;15.60;;;11.30;83.20;;;;;;4994121;28;20040;-70
2021/03/12 11:35:48;;;;;;;25.55;17.02;;;11.30;83.10;;;;;;4993762;28;20101;-69
2021/03/12 11:38:14;;;;;;;24.27;16.30;;;11.40;82.90;;;;;;4995229;28;20477;-69
2021/03/12 11:40:40;;;;;;;23.92;16.02;;;11.40;82.80;;;;;;4995296;28;20549;-69
2021/03/12 11:43:07;;;;;;;22.88;16.50;;;11.30;82.60;;;;;;4995098;28;20030;-70
2021/03/12 11:45:33;;;;;;;22.52;16.27;;;11.30;83.00;;;;;;4994570;28;20081;-69
2021/03/12 11:47:59;;;;;;;22.27;16.20;;;11.30;82.90;;;;;;4994897;28;20030;-77
2021/03/12 11:50:27;;;;;;;22.70;15.77;;;11.30;83.20;;;;;;4995065;28;20053;-69
2021/03/12 11:52:53;;;;;;;24.25;15.73;;;11.40;83.00;;;;;;4994761;28;20026;-70
2021/03/12 11:55:19;;;;;;;22.25;15.43;;;11.40;82.90;;;;;;4993672;28;20105;-70
2021/03/12 11:57:45;;;;;;;21.02;14.55;;;11.30;83.20;;;;;;4992395;28;20046;-70
2021/03/12 12:00:12;;;;;;;25.67;15.90;;;11.40;82.80;;;;;;4990309;28;20498;-70
2021/03/12 12:02:39;;;;;;;21.27;16.65;;;11.40;82.80;;;;;;4990031;28;20037;-70
2021/03/12 12:05:07;;;;;;;26.33;16.10;;;11.40;82.90;;;;;;4993237;28;20038;-70
2021/03/12 12:07:33;;;;;;;25.75;16.45;;;11.40;82.80;;;;;;4993398;28;20088;-70
2021/03/12 12:10:00;;;;;;;27.88;16.42;;;11.40;82.60;;;;;;4993455;28;20030;-70
2021/03/12 12:12:26;;;;;;;23.50;16.20;;;11.40;82.50;;;;;;4992981;28;20022;-70
2021/03/12 12:14:51;;;;;;;244.20;153.95;;;11.50;82.50;;;;;;4993020;28;20057;-69
2021/03/12 12:17:17;;;;;;;178.90;123.57;;;11.50;82.70;;;;;;4993579;28;20506;-68
2021/03/12 12:19:45;;;;;;;60.03;36.97;;;11.50;82.30;;;;;;4993279;28;20042;-68
2021/03/12 12:22:11;;;;;;;29.08;21.35;;;11.50;82.30;;;;;;4993013;28;20029;-68
2021/03/12 12:24:37;;;;;;;26.95;18.90;;;11.50;82.50;;;;;;4990267;28;20038;-68
2021/03/12 12:27:04;;;;;;;27.40;22.27;;;11.50;82.50;;;;;;4990169;28;20030;-71
2021/03/12 12:29:30;;;;;;;29.08;23.00;;;11.50;82.40;;;;;;4991147;28;20111;-67
2021/03/12 12:31:55;;;;;;;31.67;21.30;;;11.50;82.50;;;;;;4992365;28;20072;-68
2021/03/12 12:34:21;;;;;;;40.08;25.38;;;11.50;83.10;;;;;;4991615;28;20026;-67
2021/03/12 12:36:47;;;;;;;33.22;21.42;;;11.50;82.70;;;;;;4991875;28;20023;-67
2021/03/12 12:39:13;;;;;;;30.02;19.13;;;11.50;82.70;;;;;;4992527;28;20545;-68